Estación Meteorológica Peña el Pijo (Robertgarden) [ 05/26/19 19:25:02 CEST ]

Fecha Hora Presion(HPa) Temp (°C) Humedad % Rocio (°C) Viento ( m/s) Direccion Lluvia 1Hora(mm) Lluvia 24H(mm) LLuvia Total(mm)
2019-Jan-24 01:02:02 996.500 7.4 73 2.9       1.03 167.31
2019-Jan-24 02:05:11 997.100 7.5 72 3.0       1.03 167.31
2019-Jan-24 03:01:47 996.600 7.8 71 2.9         167.31
2019-Jan-24 04:01:48 996.400 7.5 72 2.8         167.31
2019-Jan-24 05:01:55 996.700 7.3 73 2.8         167.31
2019-Jan-24 06:01:48 996.200 7.2 73 2.7         167.31
2019-Jan-24 07:01:46 996.300 7.5 72 2.8 3.0 NNE     167.31
2019-Jan-24 08:01:41 997.000 7.5 71 2.6         167.31
2019-Jan-24 09:01:50 997.600 7.2 73 2.7         167.31
2019-Jan-24 10:01:37 998.200 8.6 71 3.6 3.5 N     167.31
2019-Jan-24 11:01:34 998.900 9.4 66 3.3 3.2 NW     167.31
2019-Jan-24 12:01:54 999.400 11.1 61 3.8 0.5 NW     167.31
2019-Jan-24 13:01:39 999.500 11.1 57 2.8         167.31
2019-Jan-24 14:01:49 999.500 10.9 57 2.7 2.4 WNW     167.31
2019-Jan-24 15:01:50 999.200 11.6 60 4.1         167.31
2019-Jan-24 16:01:58 999.700 10.7 62 3.7         167.31
2019-Jan-24 17:01:46 999.900 9.9 65 3.6         167.31
2019-Jan-24 18:01:42 1000.300 9.2 69 3.8         167.31
2019-Jan-24 19:01:44 1001.000 8.9 72 4.1 2.5 NNW     167.31
2019-Jan-24 20:01:51 1001.600 9.1 71 4.1         167.31
2019-Jan-24 21:01:50 1002.400 9.0 69 3.6         167.31
2019-Jan-24 22:01:52 1002.800 8.8 68 3.2         167.31
2019-Jan-24 23:01:59 1002.400 8.6 68 3.0         167.31

Temperatura Máxima:11°    Temperatura Mínima:
Presión Máxima:1002.800 Hpa    Presión Mínima:996.200 Hpa


Volver